Terminal Aerodrome Forecast
Issued by NWS Wilmington, OH

Current Version | Previous Version | Text Only | Print | Product List | Glossary Off
Versions: 1 2 3 4 5 6 7 8 9 10 11 12 13 14 15 16 17 18 19 20 21 22 23 24 25 26 27 28 29 30 31 32 33 34

000
FTUS41 KILN 301129
TAFILN
TAF
KILN 301129Z 3012/0112 14005KT 3SM BR VCSH OVC003
      TEMPO 3012/3016 1SM -TSRA BR OVC002CB
     FM301600 15006KT P6SM VCSH SCT002 BKN015
     FM010000 15003KT P6SM BKN040
     FM010600 00000KT 4SM BR BKN040=

USA.gov is the U.S. government's official web portal to all federal, state and local government web resources and services.